createdAt,value
2019-02-09T08:29:14.821Z,9.38
2019-02-09T08:30:12.734Z,9.38
2019-02-09T08:32:12.485Z,9.44
2019-02-09T08:33:06.984Z,9.52
2019-02-09T08:35:04.291Z,9.26
2019-02-09T08:36:01.132Z,9.38
2019-02-09T08:37:55.710Z,9.45
2019-02-09T08:38:55.719Z,9.41
2019-02-09T08:40:49.950Z,9.42
2019-02-09T08:41:49.862Z,9.50
2019-02-09T08:43:45.241Z,9.40
2019-02-09T08:44:44.002Z,9.49
2019-02-09T08:45:45.330Z,9.48
2019-02-09T08:46:45.998Z,9.48
2019-02-09T08:47:44.067Z,9.49
2019-02-09T08:48:45.542Z,9.49
2019-02-09T08:49:45.496Z,9.50
2019-02-09T08:50:46.189Z,9.55
2019-02-09T08:51:44.012Z,9.45
2019-02-09T08:52:46.808Z,9.55
2019-02-09T08:53:43.963Z,9.52
2019-02-09T08:54:43.925Z,9.53
2019-02-09T08:55:46.459Z,9.58
2019-02-09T08:56:43.974Z,9.52
2019-02-09T08:57:48.297Z,9.53
2019-02-09T08:58:46.666Z,9.56
2019-02-09T08:59:45.420Z,9.52
2019-02-09T09:00:45.675Z,9.48
2019-02-09T09:01:43.957Z,9.44
2019-02-09T09:02:47.387Z,9.49
2019-02-09T09:03:46.453Z,9.52
2019-02-09T09:04:45.922Z,9.53
2019-02-09T09:05:46.125Z,9.67
2019-02-09T09:06:43.856Z,9.58
2019-02-09T09:07:45.761Z,9.67
2019-02-09T09:08:45.699Z,9.70
2019-02-09T09:09:43.945Z,9.62
2019-02-09T09:10:45.464Z,9.68
2019-02-09T09:11:45.883Z,9.68
2019-02-09T09:12:48.075Z,9.68
2019-02-09T09:13:43.838Z,9.68
2019-02-09T09:14:45.679Z,9.60
2019-02-09T09:15:45.733Z,9.74
2019-02-09T09:16:46.263Z,9.62
2019-02-09T09:17:45.196Z,9.74
2019-02-09T09:18:43.925Z,9.88
2019-02-09T09:19:45.873Z,9.95
2019-02-09T09:20:45.281Z,10.07
2019-02-09T09:21:45.999Z,10.02
2019-02-09T09:22:46.165Z,10.01
2019-02-09T09:23:46.281Z,10.10
2019-02-09T09:24:46.221Z,10.02
2019-02-09T09:25:43.840Z,10.11
2019-02-09T09:26:45.819Z,10.06
2019-02-09T09:27:45.791Z,9.93
2019-02-09T09:28:43.723Z,9.95
2019-02-09T09:29:43.709Z,10.14
2019-02-09T09:30:45.576Z,9.98
2019-02-09T11:45:32.913Z,10.99
2019-02-09T11:46:32.724Z,11.16
2019-02-09T11:48:29.564Z,10.99
2019-02-09T11:49:26.878Z,10.87
2019-02-09T11:50:26.889Z,10.88
2019-02-09T11:51:26.873Z,10.93
2019-02-09T11:52:27.121Z,10.95
2019-02-09T11:53:28.802Z,11.06
2019-02-09T11:54:28.866Z,10.91
2019-02-09T11:55:27.012Z,10.94
2019-02-09T11:56:26.965Z,10.95
2019-02-09T11:57:26.921Z,10.73
2019-02-09T11:58:26.844Z,10.91
2019-02-09T11:59:28.156Z,10.81
2019-02-09T12:00:26.854Z,10.81
2019-02-09T12:01:26.803Z,10.72
2019-02-09T12:02:26.822Z,10.70
2019-02-09T12:03:26.821Z,10.72
2019-02-09T12:04:26.881Z,10.87
2019-02-09T12:05:26.779Z,10.93
2019-02-09T12:06:26.791Z,10.73
2019-02-09T12:07:26.796Z,10.91
2019-02-09T12:08:29.530Z,10.65
2019-02-09T12:09:26.770Z,10.70
2019-02-09T12:10:26.841Z,10.69
2019-02-09T12:11:26.911Z,10.80
2019-02-09T12:12:29.291Z,10.91
2019-02-09T12:13:29.607Z,11.38
2019-02-09T12:14:26.873Z,12.16
2019-02-09T12:15:26.746Z,12.31
2019-02-09T12:16:29.246Z,11.97
2019-02-09T12:17:26.715Z,12.49
2019-02-09T12:18:26.731Z,12.91
2019-02-09T12:19:26.745Z,12.21
2019-02-09T12:20:26.708Z,11.78
2019-02-09T12:21:26.700Z,11.66
2019-02-09T12:22:28.103Z,11.72
2019-02-09T12:23:26.703Z,11.54
2019-02-09T12:24:27.993Z,11.54
2019-02-09T12:25:26.682Z,11.54
2019-02-09T12:26:28.197Z,11.51
2019-02-09T12:27:28.398Z,11.67
2019-02-09T12:28:26.722Z,11.66
2019-02-09T12:29:26.718Z,11.67
2019-02-09T12:30:26.671Z,11.74
2019-02-09T12:31:29.295Z,11.59
2019-02-09T12:32:29.541Z,11.56
2019-02-09T12:33:26.663Z,11.44
2019-02-09T12:34:28.445Z,11.35
2019-02-09T12:35:26.841Z,11.56
2019-02-09T12:36:26.739Z,11.49
2019-02-09T12:37:26.624Z,11.66
2019-02-09T12:38:26.673Z,11.67
2019-02-09T12:39:26.643Z,11.57
2019-02-09T12:40:26.614Z,11.53
2019-02-09T12:41:26.618Z,11.44
2019-02-09T12:42:26.619Z,11.35
2019-02-09T12:43:26.682Z,11.39
2019-02-09T12:44:26.585Z,11.35
2019-02-09T12:45:26.613Z,12.13
2019-02-09T12:46:26.666Z,11.77
2019-02-09T12:47:34.451Z,11.39
2019-02-09T12:48:26.582Z,11.49
2019-02-09T12:49:27.401Z,11.31
2019-02-09T12:50:26.615Z,11.39
2019-02-09T12:51:28.404Z,11.33
2019-02-09T12:52:26.612Z,11.33
2019-02-09T12:53:26.564Z,11.16
2019-02-09T12:54:26.629Z,11.17
2019-02-09T12:55:26.597Z,11.17
2019-02-09T12:56:26.536Z,11.12
2019-02-09T12:57:26.541Z,11.02
2019-02-09T12:58:26.534Z,11.12
2019-02-09T12:59:26.618Z,11.35
2019-02-09T13:00:26.574Z,11.27
2019-02-09T13:01:26.520Z,11.17
2019-02-09T13:02:28.543Z,11.24
2019-02-09T13:03:31.333Z,11.16
2019-02-09T13:04:26.521Z,11.23
2019-02-09T13:05:26.503Z,11.39
2019-02-09T13:06:26.535Z,11.81
2019-02-09T13:07:28.772Z,11.87
2019-02-09T13:08:26.507Z,11.64
2019-02-09T13:09:26.478Z,12.08
2019-02-09T13:10:26.536Z,11.97
2019-02-09T13:11:27.858Z,11.74
2019-02-09T13:12:26.477Z,11.63
2019-02-09T13:13:26.508Z,11.51
2019-02-09T13:14:28.060Z,11.41
2019-02-09T13:15:26.545Z,11.36
2019-02-09T13:16:27.674Z,11.35
2019-02-09T13:17:26.426Z,11.28
2019-02-09T13:18:26.421Z,11.17
2019-02-09T13:19:27.971Z,11.13
2019-02-09T13:20:26.406Z,11.03
2019-02-09T13:21:27.594Z,11.01
2019-02-09T13:22:28.024Z,10.87
2019-02-09T13:23:26.466Z,10.69
2019-02-09T13:24:26.453Z,10.86
2019-02-09T13:25:26.451Z,10.73
2019-02-09T13:26:27.668Z,10.86
2019-02-09T13:27:28.236Z,10.73
2019-02-09T13:28:27.829Z,10.75
2019-02-09T13:29:26.387Z,10.76
2019-02-09T13:30:26.570Z,10.62
2019-02-09T13:31:28.040Z,10.51
2019-02-09T13:32:27.912Z,10.57
2019-02-09T13:33:28.209Z,10.51
2019-02-09T13:34:28.504Z,10.43
2019-02-09T13:35:26.403Z,10.43
2019-02-09T13:36:27.675Z,10.52
2019-02-09T13:37:27.953Z,10.60
2019-02-09T13:38:28.107Z,10.75
2019-02-09T13:39:26.354Z,11.05
2019-02-09T13:40:26.409Z,11.74
2019-02-09T13:41:27.936Z,12.03
2019-02-09T13:42:27.606Z,11.75
2019-02-09T13:43:26.327Z,12.12
2019-02-09T13:44:26.359Z,12.38
2019-02-09T13:45:26.383Z,12.46
2019-02-09T13:46:27.543Z,12.48
2019-02-09T13:47:27.679Z,12.67
2019-02-09T13:48:29.886Z,12.37
2019-02-09T13:49:26.274Z,12.16
2019-02-09T13:50:26.288Z,11.81
2019-02-09T13:51:28.099Z,11.82
2019-02-09T13:52:28.080Z,11.97
